sensor_id;sensor_type;location;lat;lon;timestamp;pressure;altitude;pressure_sealevel;temperature;humidity
20424;BME280;10371;49.042;8.002;2023-10-08T00:00:38;100735.50;;;17.04;74.67
20424;BME280;10371;49.042;8.002;2023-10-08T00:01:50;100736.50;;;17.03;74.84
20424;BME280;10371;49.042;8.002;2023-10-08T00:02:51;100728.59;;;17.03;74.75
20424;BME280;10371;49.042;8.002;2023-10-08T00:03:52;100722.22;;;17.06;74.63
20424;BME280;10371;49.042;8.002;2023-10-08T00:04:53;100727.63;;;17.04;74.69
20424;BME280;10371;49.042;8.002;2023-10-08T00:05:58;100731.91;;;17.05;74.80
20424;BME280;10371;49.042;8.002;2023-10-08T00:06:58;100731.91;;;17.05;74.91
20424;BME280;10371;49.042;8.002;2023-10-08T00:07:58;100731.06;;;17.05;74.79
20424;BME280;10371;49.042;8.002;2023-10-08T00:08:59;100727.47;;;17.06;75.15
20424;BME280;10371;49.042;8.002;2023-10-08T00:10:09;100724.31;;;17.02;75.27
20424;BME280;10371;49.042;8.002;2023-10-08T00:11:09;100723.63;;;17.00;75.27
20424;BME280;10371;49.042;8.002;2023-10-08T00:12:12;100718.50;;;16.98;75.63
20424;BME280;10371;49.042;8.002;2023-10-08T00:13:14;100728.19;;;16.98;75.60
20424;BME280;10371;49.042;8.002;2023-10-08T00:14:18;100728.31;;;16.96;75.72
20424;BME280;10371;49.042;8.002;2023-10-08T00:15:21;100727.78;;;16.93;75.67
20424;BME280;10371;49.042;8.002;2023-10-08T00:16:25;100728.59;;;16.93;75.63
20424;BME280;10371;49.042;8.002;2023-10-08T00:17:28;100722.53;;;16.93;75.86
20424;BME280;10371;49.042;8.002;2023-10-08T00:18:28;100719.88;;;16.93;75.46
20424;BME280;10371;49.042;8.002;2023-10-08T00:19:28;100722.69;;;16.91;75.76
20424;BME280;10371;49.042;8.002;2023-10-08T00:20:35;100715.91;;;16.89;75.65
20424;BME280;10371;49.042;8.002;2023-10-08T00:21:37;100720.34;;;16.88;75.96
20424;BME280;10371;49.042;8.002;2023-10-08T00:22:38;100720.88;;;16.92;75.99
20424;BME280;10371;49.042;8.002;2023-10-08T00:23:38;100712.16;;;16.91;76.00
20424;BME280;10371;49.042;8.002;2023-10-08T00:24:57;100715.31;;;16.95;76.07
20424;BME280;10371;49.042;8.002;2023-10-08T00:25:58;100720.88;;;16.92;75.96
20424;BME280;10371;49.042;8.002;2023-10-08T00:27:04;100713.69;;;16.94;75.95
20424;BME280;10371;49.042;8.002;2023-10-08T00:28:09;100715.31;;;16.95;76.10
20424;BME280;10371;49.042;8.002;2023-10-08T00:29:13;100714.50;;;16.94;76.06
20424;BME280;10371;49.042;8.002;2023-10-08T00:30:18;100714.78;;;16.91;76.12
20424;BME280;10371;49.042;8.002;2023-10-08T00:31:18;100710.34;;;16.92;76.01
20424;BME280;10371;49.042;8.002;2023-10-08T00:32:19;100704.28;;;16.91;76.29
20424;BME280;10371;49.042;8.002;2023-10-08T00:33:19;100716.16;;;16.95;75.89
20424;BME280;10371;49.042;8.002;2023-10-08T00:34:19;100715.31;;;16.95;76.09
20424;BME280;10371;49.042;8.002;2023-10-08T00:35:20;100710.88;;;16.95;76.06
20424;BME280;10371;49.042;8.002;2023-10-08T00:36:20;100719.47;;;16.97;76.16
20424;BME280;10371;49.042;8.002;2023-10-08T00:37:20;100720.84;;;17.02;76.05
20424;BME280;10371;49.042;8.002;2023-10-08T00:38:23;100711.16;;;17.02;76.04
20424;BME280;10371;49.042;8.002;2023-10-08T00:39:32;100718.38;;;17.00;76.03
20424;BME280;10371;49.042;8.002;2023-10-08T00:40:37;100712.94;;;17.02;75.94
20424;BME280;10371;49.042;8.002;2023-10-08T00:41:40;100715.03;;;17.08;75.70
20424;BME280;10371;49.042;8.002;2023-10-08T00:42:42;100706.72;;;17.03;75.96
20424;BME280;10371;49.042;8.002;2023-10-08T00:43:46;100708.53;;;17.02;75.84
20424;BME280;10371;49.042;8.002;2023-10-08T00:44:46;100709.34;;;17.03;75.83
20424;BME280;10371;49.042;8.002;2023-10-08T00:45:51;100710.31;;;17.02;75.96
20424;BME280;10371;49.042;8.002;2023-10-08T00:46:52;100698.13;;;17.01;75.92
20424;BME280;10371;49.042;8.002;2023-10-08T00:47:53;100697.03;;;17.03;76.07
20424;BME280;10371;49.042;8.002;2023-10-08T00:48:57;100693.41;;;17.04;75.99
20424;BME280;10371;49.042;8.002;2023-10-08T00:49:58;100699.50;;;17.05;75.85
20424;BME280;10371;49.042;8.002;2023-10-08T00:51:06;100686.63;;;17.02;75.87
20424;BME280;10371;49.042;8.002;2023-10-08T00:52:30;100690.25;;;17.01;75.92
20424;BME280;10371;49.042;8.002;2023-10-08T00:53:38;100695.38;;;17.02;76.04
20424;BME280;10371;49.042;8.002;2023-10-08T00:54:41;100692.88;;;17.01;75.95
20424;BME280;10371;49.042;8.002;2023-10-08T00:55:51;100697.16;;;17.02;75.88
20424;BME280;10371;49.042;8.002;2023-10-08T00:56:54;100704.09;;;17.03;76.11
20424;BME280;10371;49.042;8.002;2023-10-08T00:57:58;100705.03;;;17.02;76.18
20424;BME280;10371;49.042;8.002;2023-10-08T00:59:07;100702.28;;;17.03;76.01
20424;BME280;10371;49.042;8.002;2023-10-08T01:00:13;100702.41;;;17.02;75.92
20424;BME280;10371;49.042;8.002;2023-10-08T01:01:23;100700.06;;;16.98;75.91
20424;BME280;10371;49.042;8.002;2023-10-08T01:02:30;100698.44;;;16.97;76.03
20424;BME280;10371;49.042;8.002;2023-10-08T01:03:45;100700.38;;;16.95;76.33
20424;BME280;10371;49.042;8.002;2023-10-08T01:04:45;100700.78;;;16.91;76.21
20424;BME280;10371;49.042;8.002;2023-10-08T01:05:46;100695.00;;;16.87;76.27
20424;BME280;10371;49.042;8.002;2023-10-08T01:06:47;100690.72;;;16.86;76.32
20424;BME280;10371;49.042;8.002;2023-10-08T01:07:49;100690.84;;;16.85;76.55
20424;BME280;10371;49.042;8.002;2023-10-08T01:08:51;100693.75;;;16.82;76.59
20424;BME280;10371;49.042;8.002;2023-10-08T01:09:57;100694.47;;;16.84;76.82
20424;BME280;10371;49.042;8.002;2023-10-08T01:11:17;100702.63;;;16.81;76.78
20424;BME280;10371;49.042;8.002;2023-10-08T01:12:21;100697.66;;;16.78;76.91
20424;BME280;10371;49.042;8.002;2023-10-08T01:13:21;100690.72;;;16.77;76.99
20424;BME280;10371;49.042;8.002;2023-10-08T01:14:22;100692.50;;;16.76;77.01
20424;BME280;10371;49.042;8.002;2023-10-08T01:15:32;100690.84;;;16.75;76.95
20424;BME280;10371;49.042;8.002;2023-10-08T01:16:35;100696.56;;;16.80;76.96
20424;BME280;10371;49.042;8.002;2023-10-08T01:17:36;100697.06;;;16.74;77.01
20424;BME280;10371;49.042;8.002;2023-10-08T01:18:46;100695.53;;;16.71;76.98
20424;BME280;10371;49.042;8.002;2023-10-08T01:19:51;100694.19;;;16.67;77.22
20424;BME280;10371;49.042;8.002;2023-10-08T01:20:56;100690.56;;;16.68;77.19
20424;BME280;10371;49.042;8.002;2023-10-08T01:22:04;100690.19;;;16.63;77.67
20424;BME280;10371;49.042;8.002;2023-10-08T01:23:10;100691.31;;;16.61;77.73
20424;BME280;10371;49.042;8.002;2023-10-08T01:24:14;100697.50;;;16.60;77.84
20424;BME280;10371;49.042;8.002;2023-10-08T01:25:17;100695.16;;;16.57;77.93
20424;BME280;10371;49.042;8.002;2023-10-08T01:26:23;100698.78;;;16.56;77.95
20424;BME280;10371;49.042;8.002;2023-10-08T01:27:23;100695.16;;;16.57;78.07
20424;BME280;10371;49.042;8.002;2023-10-08T01:28:24;100690.91;;;16.56;78.13
20424;BME280;10371;49.042;8.002;2023-10-08T01:29:29;100686.88;;;16.51;78.13
20424;BME280;10371;49.042;8.002;2023-10-08T01:30:29;100694.91;;;16.50;78.41
20424;BME280;10371;49.042;8.002;2023-10-08T01:31:41;100701.00;;;16.50;78.45
20424;BME280;10371;49.042;8.002;2023-10-08T01:32:44;100694.09;;;16.49;78.59
20424;BME280;10371;49.042;8.002;2023-10-08T01:33:45;100699.47;;;16.48;78.69
20424;BME280;10371;49.042;8.002;2023-10-08T01:34:54;100692.28;;;16.50;78.59
20424;BME280;10371;49.042;8.002;2023-10-08T01:35:54;100694.34;;;16.46;78.68
20424;BME280;10371;49.042;8.002;2023-10-08T01:36:55;100701.28;;;16.47;78.82
20424;BME280;10371;49.042;8.002;2023-10-08T01:37:55;100692.69;;;16.45;78.85
20424;BME280;10371;49.042;8.002;2023-10-08T01:38:57;100698.09;;;16.44;78.82
20424;BME280;10371;49.042;8.002;2023-10-08T01:39:58;100697.13;;;16.45;79.12
20424;BME280;10371;49.042;8.002;2023-10-08T01:41:01;100704.59;;;16.49;78.78
20424;BME280;10371;49.042;8.002;2023-10-08T01:42:18;100701.28;;;16.47;78.82
20424;BME280;10371;49.042;8.002;2023-10-08T01:43:20;100700.75;;;16.44;79.12
20424;BME280;10371;49.042;8.002;2023-10-08T01:44:21;100694.63;;;16.43;79.11
20424;BME280;10371;49.042;8.002;2023-10-08T01:45:21;100698.53;;;16.39;79.29
20424;BME280;10371;49.042;8.002;2023-10-08T01:46:25;100699.75;;;16.35;79.42
20424;BME280;10371;49.042;8.002;2023-10-08T01:47:25;100695.47;;;16.34;79.49
20424;BME280;10371;49.042;8.002;2023-10-08T01:48:26;100691.19;;;16.33;79.52
20424;BME280;10371;49.042;8.002;2023-10-08T01:49:28;100694.38;;;16.37;79.42
20424;BME280;10371;49.042;8.002;2023-10-08T01:50:33;100688.28;;;16.36;79.47
20424;BME280;10371;49.042;8.002;2023-10-08T01:51:34;100694.50;;;16.35;79.46
20424;BME280;10371;49.042;8.002;2023-10-08T01:52:39;100698.09;;;16.34;79.51
20424;BME280;10371;49.042;8.002;2023-10-08T01:53:41;100691.88;;;16.35;79.44
20424;BME280;10371;49.042;8.002;2023-10-08T01:54:41;100685.66;;;16.36;79.29
20424;BME280;10371;49.042;8.002;2023-10-08T01:55:42;100689.41;;;16.34;79.33
20424;BME280;10371;49.042;8.002;2023-10-08T01:56:48;100676.66;;;16.29;79.54
20424;BME280;10371;49.042;8.002;2023-10-08T01:57:50;100682.91;;;16.28;79.56
20424;BME280;10371;49.042;8.002;2023-10-08T01:58:53;100682.06;;;16.27;79.72
20424;BME280;10371;49.042;8.002;2023-10-08T01:59:54;100680.28;;;16.28;79.87
20424;BME280;10371;49.042;8.002;2023-10-08T02:00:54;100679.44;;;16.27;79.76
20424;BME280;10371;49.042;8.002;2023-10-08T02:01:58;100679.16;;;16.30;79.76
20424;BME280;10371;49.042;8.002;2023-10-08T02:02:59;100680.28;;;16.28;79.68
20424;BME280;10371;49.042;8.002;2023-10-08T02:03:59;100678.06;;;16.23;79.60
20424;BME280;10371;49.042;8.002;2023-10-08T02:05:00;100677.50;;;16.20;79.63
20424;BME280;10371;49.042;8.002;2023-10-08T02:06:00;100673.91;;;16.21;79.72
20424;BME280;10371;49.042;8.002;2023-10-08T02:07:05;100677.22;;;16.23;79.73
20424;BME280;10371;49.042;8.002;2023-10-08T02:08:13;100671.44;;;16.19;79.71
20424;BME280;10371;49.042;8.002;2023-10-08T02:09:14;100675.00;;;16.18;79.65
20424;BME280;10371;49.042;8.002;2023-10-08T02:10:15;100675.56;;;16.12;79.80
20424;BME280;10371;49.042;8.002;2023-10-08T02:11:15;100668.22;;;16.16;79.61
20424;BME280;10371;49.042;8.002;2023-10-08T02:12:16;100674.63;;;16.13;79.82
20424;BME280;10371;49.042;8.002;2023-10-08T02:13:16;100669.50;;;16.12;79.73
20424;BME280;10371;49.042;8.002;2023-10-08T02:14:17;100680.69;;;16.14;79.61
20424;BME280;10371;49.042;8.002;2023-10-08T02:15:18;100670.31;;;16.12;79.71
20424;BME280;10371;49.042;8.002;2023-10-08T02:16:19;100678.06;;;16.14;79.61
20424;BME280;10371;49.042;8.002;2023-10-08T02:17:21;100673.75;;;16.13;79.43
20424;BME280;10371;49.042;8.002;2023-10-08T02:18:21;100671.69;;;16.06;79.47
20424;BME280;10371;49.042;8.002;2023-10-08T02:19:25;100682.75;;;16.00;79.62
20424;BME280;10371;49.042;8.002;2023-10-08T02:20:29;100685.94;;;16.04;79.74
20424;BME280;10371;49.042;8.002;2023-10-08T02:21:29;100678.34;;;16.01;79.55
20424;BME280;10371;49.042;8.002;2023-10-08T02:22:29;100676.81;;;15.98;79.78
20424;BME280;10371;49.042;8.002;2023-10-08T02:23:29;100683.31;;;15.94;79.58
20424;BME280;10371;49.042;8.002;2023-10-08T02:24:30;100682.34;;;15.95;79.85
20424;BME280;10371;49.042;8.002;2023-10-08T02:25:31;100683.03;;;15.97;79.85
20424;BME280;10371;49.042;8.002;2023-10-08T02:26:31;100687.31;;;15.98;79.79
20424;BME280;10371;49.042;8.002;2023-10-08T02:27:32;100678.34;;;15.91;79.75
20424;BME280;10371;49.042;8.002;2023-10-08T02:28:33;100684.53;;;15.90;79.90
20424;BME280;10371;49.042;8.002;2023-10-08T02:29:33;100683.88;;;15.88;79.79
20424;BME280;10371;49.042;8.002;2023-10-08T02:30:34;100682.19;;;15.87;80.09
20424;BME280;10371;49.042;8.002;2023-10-08T02:31:35;100675.41;;;15.84;80.16
20424;BME280;10371;49.042;8.002;2023-10-08T02:32:35;100682.75;;;15.81;80.29
20424;BME280;10371;49.042;8.002;2023-10-08T02:33:36;100674.31;;;15.77;80.45
20424;BME280;10371;49.042;8.002;2023-10-08T02:34:38;100679.41;;;15.79;80.38
20424;BME280;10371;49.042;8.002;2023-10-08T02:35:38;100678.88;;;15.75;80.38
20424;BME280;10371;49.042;8.002;2023-10-08T02:36:39;100677.22;;;15.74;80.50
20424;BME280;10371;49.042;8.002;2023-10-08T02:37:40;100674.72;;;15.73;80.44
20424;BME280;10371;49.042;8.002;2023-10-08T02:38:40;100672.25;;;15.71;80.55
20424;BME280;10371;49.042;8.002;2023-10-08T02:39:41;100670.28;;;15.73;80.39
20424;BME280;10371;49.042;8.002;2023-10-08T02:40:42;100673.19;;;15.70;80.20
20424;BME280;10371;49.042;8.002;2023-10-08T02:41:48;100670.72;;;15.69;80.37
20424;BME280;10371;49.042;8.002;2023-10-08T02:42:49;100671.09;;;15.64;80.57
20424;BME280;10371;49.042;8.002;2023-10-08T02:43:49;100673.56;;;15.65;80.61
20424;BME280;10371;49.042;8.002;2023-10-08T02:44:49;100676.59;;;15.61;80.73
20424;BME280;10371;49.042;8.002;2023-10-08T02:45:51;100673.44;;;15.57;80.60
20424;BME280;10371;49.042;8.002;2023-10-08T02:46:52;100677.81;;;15.57;80.77
20424;BME280;10371;49.042;8.002;2023-10-08T02:47:56;100679.50;;;15.58;80.81
20424;BME280;10371;49.042;8.002;2023-10-08T02:48:57;100684.88;;;15.56;80.85
20424;BME280;10371;49.042;8.002;2023-10-08T02:49:58;100688.88;;;15.51;81.12
20424;BME280;10371;49.042;8.002;2023-10-08T02:50:58;100689.97;;;15.48;81.01
20424;BME280;10371;49.042;8.002;2023-10-08T02:52:07;100690.13;;;15.47;80.91
20424;BME280;10371;49.042;8.002;2023-10-08T02:53:13;100689.28;;;15.46;81.25
20424;BME280;10371;49.042;8.002;2023-10-08T02:54:21;100695.75;;;15.42;81.25
20424;BME280;10371;49.042;8.002;2023-10-08T02:55:31;100700.00;;;15.33;81.26
20424;BME280;10371;49.042;8.002;2023-10-08T02:56:34;100697.75;;;15.19;81.12
20424;BME280;10371;49.042;8.002;2023-10-08T02:57:35;100698.09;;;15.05;81.39
20424;BME280;10371;49.042;8.002;2023-10-08T02:58:35;100698.56;;;14.89;81.73
20424;BME280;10371;49.042;8.002;2023-10-08T02:59:36;100693.72;;;14.84;82.30
20424;BME280;10371;49.042;8.002;2023-10-08T03:00:44;100692.69;;;14.75;82.44
20424;BME280;10371;49.042;8.002;2023-10-08T03:01:46;100699.66;;;14.65;82.74
20424;BME280;10371;49.042;8.002;2023-10-08T03:02:49;100689.84;;;14.58;83.00
20424;BME280;10371;49.042;8.002;2023-10-08T03:03:51;100701.91;;;14.49;83.44
20424;BME280;10371;49.042;8.002;2023-10-08T03:05:03;100690.81;;;14.45;83.75
20424;BME280;10371;49.042;8.002;2023-10-08T03:06:08;100694.66;;;14.41;83.93
20424;BME280;10371;49.042;8.002;2023-10-08T03:07:15;100690.06;;;14.34;84.29
20424;BME280;10371;49.042;8.002;2023-10-08T03:08:21;100691.38;;;14.28;84.66
20424;BME280;10371;49.042;8.002;2023-10-08T03:09:23;100689.84;;;14.25;84.91
20424;BME280;10371;49.042;8.002;2023-10-08T03:10:24;100693.81;;;14.20;85.14
20424;BME280;10371;49.042;8.002;2023-10-08T03:11:32;100696.09;;;14.13;85.48
20424;BME280;10371;49.042;8.002;2023-10-08T03:12:33;100692.88;;;14.09;85.68
20424;BME280;10371;49.042;8.002;2023-10-08T03:13:33;100695.75;;;14.06;86.02
20424;BME280;10371;49.042;8.002;2023-10-08T03:14:38;100701.97;;;14.05;86.18
20424;BME280;10371;49.042;8.002;2023-10-08T03:15:49;100696.41;;;13.99;86.45
20424;BME280;10371;49.042;8.002;2023-10-08T03:16:59;100694.97;;;13.95;86.69
20424;BME280;10371;49.042;8.002;2023-10-08T03:18:07;100693.56;;;13.91;86.85
20424;BME280;10371;49.042;8.002;2023-10-08T03:19:10;100696.88;;;13.93;86.92
20424;BME280;10371;49.042;8.002;2023-10-08T03:20:11;100697.84;;;13.92;86.91
20424;BME280;10371;49.042;8.002;2023-10-08T03:21:30;100691.16;;;13.99;86.78
20424;BME280;10371;49.042;8.002;2023-10-08T03:22:39;100689.47;;;13.98;86.45
20424;BME280;10371;49.042;8.002;2023-10-08T03:23:49;100682.09;;;14.03;86.28
20424;BME280;10371;49.042;8.002;2023-10-08T03:24:51;100688.97;;;14.04;86.09
20424;BME280;10371;49.042;8.002;2023-10-08T03:25:55;100681.97;;;14.04;85.98
20424;BME280;10371;49.042;8.002;2023-10-08T03:27:01;100686.34;;;14.04;85.88
20424;BME280;10371;49.042;8.002;2023-10-08T03:28:14;100682.81;;;14.05;85.96
20424;BME280;10371;49.042;8.002;2023-10-08T03:29:16;100692.78;;;14.11;85.65
20424;BME280;10371;49.042;8.002;2023-10-08T03:30:18;100687.91;;;14.06;85.70
20424;BME280;10371;49.042;8.002;2023-10-08T03:31:18;100681.97;;;14.04;85.69
20424;BME280;10371;49.042;8.002;2023-10-08T03:32:20;100685.28;;;14.06;85.79
20424;BME280;10371;49.042;8.002;2023-10-08T03:33:28;100682.66;;;14.06;85.93
20424;BME280;10371;49.042;8.002;2023-10-08T03:34:29;100682.91;;;14.03;85.79
20424;BME280;10371;49.042;8.002;2023-10-08T03:35:34;100686.25;;;14.05;85.74
20424;BME280;10371;49.042;8.002;2023-10-08T03:36:37;100694.22;;;14.04;85.94
20424;BME280;10371;49.042;8.002;2023-10-08T03:37:44;100695.19;;;14.03;85.70
20424;BME280;10371;49.042;8.002;2023-10-08T03:38:49;100695.06;;;14.04;85.75
20424;BME280;10371;49.042;8.002;2023-10-08T03:39:52;100693.53;;;14.02;85.68
20424;BME280;10371;49.042;8.002;2023-10-08T03:41:00;100702.06;;;14.04;85.61
20424;BME280;10371;49.042;8.002;2023-10-08T03:42:09;100696.16;;;14.02;85.79
20424;BME280;10371;49.042;8.002;2023-10-08T03:43:12;100707.56;;;14.01;85.56
20424;BME280;10371;49.042;8.002;2023-10-08T03:44:24;100708.63;;;13.98;85.68
20424;BME280;10371;49.042;8.002;2023-10-08T03:45:24;100704.00;;;14.02;85.42
20424;BME280;10371;49.042;8.002;2023-10-08T03:46:43;100712.22;;;13.97;85.50
20424;BME280;10371;49.042;8.002;2023-10-08T03:47:46;100709.84;;;13.94;85.59
20424;BME280;10371;49.042;8.002;2023-10-08T03:48:53;100709.84;;;13.94;85.63
20424;BME280;10371;49.042;8.002;2023-10-08T03:49:57;100709.03;;;13.94;85.61
20424;BME280;10371;49.042;8.002;2023-10-08T03:51:05;100710.47;;;13.86;85.56
20424;BME280;10371;49.042;8.002;2023-10-08T03:52:12;100711.19;;;13.89;85.54
20424;BME280;10371;49.042;8.002;2023-10-08T03:53:15;100705.94;;;13.89;85.53
20424;BME280;10371;49.042;8.002;2023-10-08T03:54:16;100706.03;;;13.87;85.46
20424;BME280;10371;49.042;8.002;2023-10-08T03:55:17;100708.81;;;13.85;85.59
20424;BME280;10371;49.042;8.002;2023-10-08T03:56:22;100706.53;;;13.81;85.51
20424;BME280;10371;49.042;8.002;2023-10-08T03:57:22;100704.06;;;13.79;85.53
20424;BME280;10371;49.042;8.002;2023-10-08T03:58:29;100696.47;;;13.76;85.49
20424;BME280;10371;49.042;8.002;2023-10-08T03:59:31;100703.94;;;13.81;85.43
20424;BME280;10371;49.042;8.002;2023-10-08T04:00:31;100710.59;;;13.85;85.40
20424;BME280;10371;49.042;8.002;2023-10-08T04:01:32;100698.69;;;13.81;85.40
20424;BME280;10371;49.042;8.002;2023-10-08T04:02:33;100699.78;;;13.78;85.52
20424;BME280;10371;49.042;8.002;2023-10-08T04:03:39;100688.72;;;13.75;85.51
20424;BME280;10371;49.042;8.002;2023-10-08T04:04:52;100696.47;;;13.76;85.65
20424;BME280;10371;49.042;8.002;2023-10-08T04:05:53;100695.03;;;13.72;85.67
20424;BME280;10371;49.042;8.002;2023-10-08T04:07:21;100702.16;;;13.70;85.78
20424;BME280;10371;49.042;8.002;2023-10-08T04:08:27;100700.63;;;13.68;85.90
20424;BME280;10371;49.042;8.002;2023-10-08T04:09:59;100692.53;;;13.59;86.05
20424;BME280;10371;49.042;8.002;2023-10-08T04:11:09;100700.19;;;13.62;86.24
20424;BME280;10371;49.042;8.002;2023-10-08T04:12:27;100690.91;;;13.58;86.36
20424;BME280;10371;49.042;8.002;2023-10-08T04:13:28;100697.91;;;13.58;86.36
20424;BME280;10371;49.042;8.002;2023-10-08T04:14:28;100692.94;;;13.55;86.31
20424;BME280;10371;49.042;8.002;2023-10-08T04:15:29;100692.22;;;13.53;86.41
20424;BME280;10371;49.042;8.002;2023-10-08T04:16:32;100695.56;;;13.55;86.65
20424;BME280;10371;49.042;8.002;2023-10-08T04:17:36;100689.34;;;13.56;86.60
20424;BME280;10371;49.042;8.002;2023-10-08T04:18:45;100680.09;;;13.52;86.59
20424;BME280;10371;49.042;8.002;2023-10-08T04:19:45;100682.72;;;13.52;86.59
20424;BME280;10371;49.042;8.002;2023-10-08T04:20:45;100687.94;;;13.52;86.53
20424;BME280;10371;49.042;8.002;2023-10-08T04:22:00;100677.59;;;13.50;86.68
20424;BME280;10371;49.042;8.002;2023-10-08T04:23:09;100677.59;;;13.50;86.63
20424;BME280;10371;49.042;8.002;2023-10-08T04:24:18;100678.81;;;13.46;86.75
20424;BME280;10371;49.042;8.002;2023-10-08T04:25:20;100678.91;;;13.45;86.88
20424;BME280;10371;49.042;8.002;2023-10-08T04:26:20;100677.97;;;13.46;86.99
20424;BME280;10371;49.042;8.002;2023-10-08T04:27:23;100677.97;;;13.46;86.92
20424;BME280;10371;49.042;8.002;2023-10-08T04:28:26;100686.50;;;13.48;86.81
20424;BME280;10371;49.042;8.002;2023-10-08T04:29:29;100684.03;;;13.46;86.75
20424;BME280;10371;49.042;8.002;2023-10-08T04:30:33;100683.06;;;13.47;86.97
20424;BME280;10371;49.042;8.002;2023-10-08T04:31:33;100685.09;;;13.44;87.11
20424;BME280;10371;49.042;8.002;2023-10-08T04:32:37;100688.78;;;13.41;87.16
20424;BME280;10371;49.042;8.002;2023-10-08T04:33:41;100698.44;;;13.40;87.22
20424;BME280;10371;49.042;8.002;2023-10-08T04:34:42;100690.09;;;13.35;87.29
20424;BME280;10371;49.042;8.002;2023-10-08T04:35:46;100694.25;;;13.38;87.28
20424;BME280;10371;49.042;8.002;2023-10-08T04:36:56;100686.53;;;13.36;87.43
20424;BME280;10371;49.042;8.002;2023-10-08T04:38:00;100686.75;;;13.33;87.41
20424;BME280;10371;49.042;8.002;2023-10-08T04:39:02;100690.44;;;13.31;87.48
20424;BME280;10371;49.042;8.002;2023-10-08T04:40:13;100693.44;;;13.26;87.59
20424;BME280;10371;49.042;8.002;2023-10-08T04:41:16;100689.03;;;13.27;87.63
20424;BME280;10371;49.042;8.002;2023-10-08T04:42:19;100689.88;;;13.27;87.73
20424;BME280;10371;49.042;8.002;2023-10-08T04:43:25;100686.50;;;13.25;87.85
20424;BME280;10371;49.042;8.002;2023-10-08T04:44:27;100682.75;;;13.29;87.70
20424;BME280;10371;49.042;8.002;2023-10-08T04:45:32;100685.34;;;13.29;87.66
20424;BME280;10371;49.042;8.002;2023-10-08T04:46:34;100677.50;;;13.29;87.51
20424;BME280;10371;49.042;8.002;2023-10-08T04:47:55;100676.78;;;13.27;87.58
20424;BME280;10371;49.042;8.002;2023-10-08T04:48:58;100678.66;;;13.25;87.71
20424;BME280;10371;49.042;8.002;2023-10-08T04:49:59;100673.44;;;13.25;87.94
20424;BME280;10371;49.042;8.002;2023-10-08T04:50:59;100673.56;;;13.24;87.68
20424;BME280;10371;49.042;8.002;2023-10-08T04:52:02;100679.50;;;13.26;87.65
20424;BME280;10371;49.042;8.002;2023-10-08T04:53:09;100676.19;;;13.24;87.63
20424;BME280;10371;49.042;8.002;2023-10-08T04:54:11;100673.19;;;13.17;87.63
20424;BME280;10371;49.042;8.002;2023-10-08T04:55:16;100682.72;;;13.18;87.92
20424;BME280;10371;49.042;8.002;2023-10-08T04:56:20;100680.94;;;13.18;87.97
20424;BME280;10371;49.042;8.002;2023-10-08T04:57:23;100681.41;;;13.24;87.93
20424;BME280;10371;49.042;8.002;2023-10-08T04:58:25;100685.91;;;13.22;87.87
20424;BME280;10371;49.042;8.002;2023-10-08T04:59:33;100684.47;;;13.17;87.94
20424;BME280;10371;49.042;8.002;2023-10-08T05:00:33;100679.13;;;13.19;88.05
20424;BME280;10371;49.042;8.002;2023-10-08T05:01:51;100686.41;;;13.15;88.12
20424;BME280;10371;49.042;8.002;2023-10-08T05:03:10;100692.81;;;13.11;88.34
20424;BME280;10371;49.042;8.002;2023-10-08T05:04:16;100696.13;;;13.13;88.45
20424;BME280;10371;49.042;8.002;2023-10-08T05:05:45;100699.81;;;13.11;88.68
20424;BME280;10371;49.042;8.002;2023-10-08T05:06:55;100704.47;;;13.07;88.84
20424;BME280;10371;49.042;8.002;2023-10-08T05:08:17;100693.75;;;12.99;88.95
20424;BME280;10371;49.042;8.002;2023-10-08T05:09:28;100712.41;;;13.06;89.24
20424;BME280;10371;49.042;8.002;2023-10-08T05:11:07;100710.50;;;13.08;89.09
20424;BME280;10371;49.042;8.002;2023-10-08T05:12:37;100713.03;;;13.09;89.23
20424;BME280;10371;49.042;8.002;2023-10-08T05:13:38;100719.19;;;13.08;89.23
20424;BME280;10371;49.042;8.002;2023-10-08T05:14:55;100724.91;;;13.13;89.32
20424;BME280;10371;49.042;8.002;2023-10-08T05:16:09;100716.31;;;13.11;89.27
20424;BME280;10371;49.042;8.002;2023-10-08T05:17:21;100720.00;;;13.09;89.36
20424;BME280;10371;49.042;8.002;2023-10-08T05:18:21;100716.81;;;13.05;89.54
20424;BME280;10371;49.042;8.002;2023-10-08T05:19:21;100729.53;;;13.10;89.49
20424;BME280;10371;49.042;8.002;2023-10-08T05:20:40;100716.81;;;13.05;89.79
20424;BME280;10371;49.042;8.002;2023-10-08T05:21:58;100724.06;;;13.02;89.94
20424;BME280;10371;49.042;8.002;2023-10-08T05:23:18;100727.38;;;13.04;90.22
20424;BME280;10371;49.042;8.002;2023-10-08T05:24:24;100721.44;;;13.02;90.19
20424;BME280;10371;49.042;8.002;2023-10-08T05:25:42;100720.63;;;13.01;90.31
20424;BME280;10371;49.042;8.002;2023-10-08T05:26:57;100722.63;;;12.97;90.52
20424;BME280;10371;49.042;8.002;2023-10-08T05:28:18;100730.34;;;12.99;90.48
20424;BME280;10371;49.042;8.002;2023-10-08T05:29:24;100730.94;;;13.03;90.62
20424;BME280;10371;49.042;8.002;2023-10-08T05:30:52;100718.22;;;12.98;90.69
20424;BME280;10371;49.042;8.002;2023-10-08T05:32:11;100725.84;;;13.01;90.82
20424;BME280;10371;49.042;8.002;2023-10-08T05:33:29;100721.69;;;12.99;90.67
20424;BME280;10371;49.042;8.002;2023-10-08T05:34:50;100728.31;;;13.03;90.64
20424;BME280;10371;49.042;8.002;2023-10-08T05:36:12;100723.00;;;13.04;90.72
20424;BME280;10371;49.042;8.002;2023-10-08T05:37:33;100717.63;;;13.06;90.80
20424;BME280;10371;49.042;8.002;2023-10-08T05:38:41;100712.31;;;13.07;90.75
20424;BME280;10371;49.042;8.002;2023-10-08T05:39:49;100724.78;;;13.15;90.78
20424;BME280;10371;49.042;8.002;2023-10-08T05:40:57;100725.63;;;13.15;90.50